Time;durP1;ratioP1;P1;durP2;ratioP2;P2;SDS_P1;SDS_P2;PMS_P1;PMS_P2;Temp;Humidity;BMP_temperature;BMP_pressure;BME280_temperature;BME280_humidity;BME280_pressure;Samples;Min_cycle;Max_cycle;Signal;HPM_P1;HPM_P2
2023/08/19 00:01:35;;;;;;;79.38;52.42;;;19.70;99.90;;;;;;5096240;28;20021;-59
2023/08/19 00:04:01;;;;;;;98.43;55.13;;;19.70;99.90;;;;;;5095972;28;20132;-59
2023/08/19 00:06:34;;;;;;;94.38;53.42;;;19.70;99.90;;;;;;5096118;28;20028;-59
2023/08/19 00:09:04;;;;;;;87.43;54.03;;;19.70;99.90;;;;;;5096052;28;20032;-59
2023/08/19 00:11:31;;;;;;;87.20;54.17;;;19.60;99.90;;;;;;5095915;28;20036;-58
2023/08/19 00:13:57;;;;;;;84.75;53.47;;;19.70;99.90;;;;;;5095924;28;20028;-59
2023/08/19 00:16:23;;;;;;;84.43;51.30;;;19.70;99.90;;;;;;5095907;28;20024;-59
2023/08/19 00:18:49;;;;;;;83.57;52.58;;;19.70;99.90;;;;;;5096072;28;20020;-59
2023/08/19 00:21:16;;;;;;;78.22;51.40;;;19.70;99.90;;;;;;5095912;28;20119;-59
2023/08/19 00:23:41;;;;;;;83.65;52.65;;;19.70;99.90;;;;;;5095745;28;20039;-59
2023/08/19 00:26:07;;;;;;;73.93;48.85;;;19.70;99.90;;;;;;5095783;28;20115;-59
2023/08/19 00:28:33;;;;;;;77.60;50.47;;;19.70;99.90;;;;;;5095692;28;20051;-59
2023/08/19 00:30:59;;;;;;;98.50;51.47;;;19.70;99.90;;;;;;5077454;28;20032;-59
2023/08/19 00:33:25;;;;;;;84.65;50.55;;;19.60;99.90;;;;;;5095602;28;20401;-59
2023/08/19 00:35:51;;;;;;;81.75;51.92;;;19.60;99.90;;;;;;5077431;28;20024;-59
2023/08/19 00:38:18;;;;;;;91.00;50.70;;;19.60;99.90;;;;;;5077506;28;20103;-59
2023/08/19 00:40:44;;;;;;;80.55;50.10;;;19.60;99.90;;;;;;5095456;28;20222;-59
2023/08/19 00:43:09;;;;;;;83.32;48.92;;;19.60;99.90;;;;;;5095357;28;20414;-59
2023/08/19 00:45:46;;;;;;;76.28;46.60;;;19.60;99.90;;;;;;5077231;28;20024;-59
2023/08/19 00:48:16;;;;;;;65.32;42.35;;;19.60;99.90;;;;;;5077118;28;20583;-59
2023/08/19 00:50:43;;;;;;;67.00;43.90;;;19.50;99.90;;;;;;5095299;28;20031;-59
2023/08/19 00:53:12;;;;;;;73.35;44.08;;;19.60;99.90;;;;;;5094827;28;20032;-59
2023/08/19 00:55:38;;;;;;;65.18;43.70;;;19.60;99.90;;;;;;5095356;28;20117;-59
2023/08/19 00:58:05;;;;;;;66.05;41.38;;;19.50;99.90;;;;;;5095208;28;20035;-59
2023/08/19 01:00:31;;;;;;;75.43;46.33;;;19.50;99.90;;;;;;5095084;28;20505;-59
2023/08/19 01:03:04;;;;;;;88.03;47.60;;;19.60;99.90;;;;;;5076732;28;20078;-59
2023/08/19 01:06:09;;;;;;;69.28;45.50;;;19.60;99.90;;;;;;5095060;28;20502;-59
2023/08/19 01:08:50;;;;;;;70.65;43.33;;;19.50;99.90;;;;;;5064158;28;20120;-58
2023/08/19 01:11:28;;;;;;;67.72;42.10;;;19.50;99.90;;;;;;5094828;28;20082;-59
2023/08/19 01:14:08;;;;;;;64.07;44.53;;;19.40;99.90;;;;;;5094880;28;20024;-59
2023/08/19 01:16:35;;;;;;;76.32;44.58;;;19.30;99.90;;;;;;5076640;28;20030;-59
2023/08/19 01:19:04;;;;;;;68.47;44.97;;;19.30;99.90;;;;;;5094804;28;20024;-58
2023/08/19 01:21:31;;;;;;;69.78;44.67;;;19.30;99.90;;;;;;5076467;28;20024;-59
2023/08/19 01:23:59;;;;;;;61.55;41.55;;;19.20;99.90;;;;;;5094682;28;20028;-58
2023/08/19 01:26:25;;;;;;;68.53;41.45;;;19.20;99.90;;;;;;5076595;28;20032;-59
2023/08/19 01:28:51;;;;;;;67.53;38.95;;;19.20;99.90;;;;;;5094780;28;20386;-59
2023/08/19 01:31:18;;;;;;;61.08;37.00;;;19.20;99.90;;;;;;5076638;28;20390;-59
2023/08/19 01:33:44;;;;;;;57.72;38.90;;;19.20;99.90;;;;;;5094513;28;20032;-59
2023/08/19 01:36:29;;;;;;;60.85;37.67;;;19.20;99.90;;;;;;5094548;28;20048;-59
2023/08/19 01:39:04;;;;;;;60.17;40.05;;;19.20;99.90;;;;;;5094660;28;20385;-59
2023/08/19 01:41:31;;;;;;;64.50;41.63;;;19.30;99.90;;;;;;5094500;28;20106;-59
2023/08/19 01:43:59;;;;;;;67.55;40.97;;;19.30;99.90;;;;;;5076484;28;20027;-59
2023/08/19 01:46:25;;;;;;;66.93;40.50;;;19.20;99.90;;;;;;5094133;28;20044;-59
2023/08/19 01:48:51;;;;;;;66.45;38.70;;;19.10;99.90;;;;;;5076466;28;20541;-59
2023/08/19 01:51:17;;;;;;;63.67;37.67;;;19.00;99.90;;;;;;5094501;28;20078;-59
2023/08/19 01:53:43;;;;;;;63.15;38.55;;;19.00;99.90;;;;;;5076246;28;20032;-58
2023/08/19 01:56:11;;;;;;;69.15;38.97;;;19.00;99.90;;;;;;5094370;28;20073;-59
2023/08/19 01:58:37;;;;;;;62.35;36.67;;;19.00;99.90;;;;;;5094690;28;20030;-59
2023/08/19 02:01:03;;;;;;;64.05;37.58;;;19.00;99.90;;;;;;5076312;28;20495;-59
2023/08/19 02:03:30;;;;;;;46.90;33.83;;;19.00;99.90;;;;;;5094106;28;20048;-59
2023/08/19 02:05:56;;;;;;;56.60;35.20;;;19.10;99.90;;;;;;5077720;28;20032;-59
2023/08/19 02:08:22;;;;;;;49.58;33.45;;;19.10;99.90;;;;;;5080408;28;20040;-59
2023/08/19 02:10:48;;;;;;;60.05;36.30;;;19.20;99.90;;;;;;5076875;28;20036;-58
2023/08/19 02:13:14;;;;;;;52.08;35.58;;;19.20;99.90;;;;;;5080145;28;20024;-59
2023/08/19 02:15:40;;;;;;;48.78;35.05;;;19.30;99.90;;;;;;5098129;28;20103;-59
2023/08/19 02:18:06;;;;;;;58.17;36.10;;;19.30;99.90;;;;;;5080254;28;20032;-59
2023/08/19 02:20:32;;;;;;;51.78;36.42;;;19.30;99.90;;;;;;5076696;28;20025;-59
2023/08/19 02:22:59;;;;;;;57.00;36.45;;;19.30;99.90;;;;;;5076565;28;20029;-59
2023/08/19 02:25:25;;;;;;;58.15;36.85;;;19.30;99.90;;;;;;5080024;28;20313;-59
2023/08/19 02:27:51;;;;;;;52.45;34.45;;;19.30;99.90;;;;;;5079810;28;20031;-59
2023/08/19 02:30:17;;;;;;;64.15;35.53;;;19.30;99.90;;;;;;5097816;28;20381;-59
2023/08/19 02:32:43;;;;;;;60.25;37.13;;;19.30;99.90;;;;;;5097870;28;20032;-59
2023/08/19 02:35:10;;;;;;;56.45;37.17;;;19.30;99.90;;;;;;5077220;28;20028;-59
2023/08/19 02:37:36;;;;;;;52.20;34.38;;;19.40;99.90;;;;;;5079687;28;20055;-59
2023/08/19 02:40:03;;;;;;;46.25;35.08;;;19.40;99.90;;;;;;5097834;28;20055;-59
2023/08/19 02:42:29;;;;;;;52.55;33.03;;;19.50;99.90;;;;;;5079423;28;20036;-59
2023/08/19 02:44:56;;;;;;;56.60;34.50;;;19.40;99.90;;;;;;5097669;28;20028;-59
2023/08/19 02:47:22;;;;;;;54.17;33.90;;;19.40;99.90;;;;;;5079492;28;20034;-59
2023/08/19 02:49:49;;;;;;;50.80;34.25;;;19.30;99.90;;;;;;5079491;28;20389;-59
2023/08/19 02:52:15;;;;;;;54.63;33.10;;;19.30;99.90;;;;;;5097457;28;20028;-59
2023/08/19 02:54:41;;;;;;;47.17;31.13;;;19.30;99.90;;;;;;5079331;28;20421;-59
2023/08/19 02:57:06;;;;;;;48.70;31.98;;;19.30;99.90;;;;;;5097649;28;20767;-59
2023/08/19 02:59:32;;;;;;;59.13;32.88;;;19.30;99.90;;;;;;5097586;28;20031;-59
2023/08/19 03:01:58;;;;;;;49.60;30.60;;;19.30;99.90;;;;;;5079142;28;20504;-58
2023/08/19 03:04:24;;;;;;;50.28;31.85;;;19.30;99.90;;;;;;5079038;28;20136;-59
2023/08/19 03:06:50;;;;;;;65.22;33.78;;;19.30;99.90;;;;;;5079301;28;20115;-59
2023/08/19 03:09:16;;;;;;;50.50;30.67;;;19.40;99.90;;;;;;5097295;28;20032;-59
2023/08/19 03:11:42;;;;;;;54.47;29.55;;;19.40;99.90;;;;;;5078941;28;20046;-59
2023/08/19 03:14:08;;;;;;;46.50;30.63;;;19.40;99.90;;;;;;5096987;28;20032;-59
2023/08/19 03:16:34;;;;;;;45.33;29.08;;;19.40;99.90;;;;;;5078721;28;20483;-59
2023/08/19 03:18:59;;;;;;;46.50;28.85;;;19.40;99.90;;;;;;5078876;28;20038;-59
2023/08/19 03:21:25;;;;;;;44.92;30.63;;;19.40;99.90;;;;;;5078815;28;20063;-59
2023/08/19 03:23:51;;;;;;;43.65;27.98;;;19.40;99.90;;;;;;5078915;28;20070;-59
2023/08/19 03:26:17;;;;;;;51.42;29.05;;;19.50;99.90;;;;;;5096982;28;20058;-59
2023/08/19 03:28:43;;;;;;;51.60;31.15;;;19.40;99.90;;;;;;5096788;28;20043;-59
2023/08/19 03:31:10;;;;;;;53.22;31.30;;;19.40;99.90;;;;;;5078688;28;20024;-59
2023/08/19 03:33:38;;;;;;;43.58;30.60;;;19.40;99.90;;;;;;5078632;28;20035;-59
2023/08/19 03:36:04;;;;;;;46.92;30.30;;;19.30;99.90;;;;;;5078564;28;20390;-59
2023/08/19 03:38:31;;;;;;;40.85;30.15;;;19.30;99.90;;;;;;5096666;28;20048;-59
2023/08/19 03:40:57;;;;;;;43.63;29.83;;;19.30;99.90;;;;;;5078387;28;20032;-59
2023/08/19 03:43:23;;;;;;;46.28;30.80;;;19.30;99.90;;;;;;5096606;28;20032;-59
2023/08/19 03:45:49;;;;;;;45.08;30.63;;;19.40;99.90;;;;;;5096054;28;20020;-59
2023/08/19 03:48:14;;;;;;;53.22;30.98;;;19.40;99.90;;;;;;5078395;28;20061;-59
2023/08/19 03:50:41;;;;;;;44.05;29.27;;;19.30;99.90;;;;;;5078103;28;20024;-59
2023/08/19 03:53:07;;;;;;;48.00;30.85;;;19.20;99.90;;;;;;5096514;28;20089;-59
2023/08/19 03:55:33;;;;;;;52.85;30.38;;;19.10;99.90;;;;;;5096034;28;20024;-59
2023/08/19 03:57:59;;;;;;;52.60;28.77;;;19.10;99.90;;;;;;5078040;28;20032;-59
2023/08/19 04:00:25;;;;;;;43.50;27.85;;;19.10;99.90;;;;;;5078021;28;20020;-59
2023/08/19 04:02:51;;;;;;;53.25;28.98;;;19.00;99.90;;;;;;5090426;28;20036;-59
2023/08/19 04:05:17;;;;;;;45.10;28.15;;;19.00;99.90;;;;;;5057992;28;20033;-59
2023/08/19 04:07:43;;;;;;;42.30;29.48;;;19.00;99.90;;;;;;5075884;28;20410;-58
2023/08/19 04:10:09;;;;;;;47.33;28.48;;;19.00;99.90;;;;;;5057707;28;20389;-59
2023/08/19 04:12:35;;;;;;;43.70;27.77;;;19.10;99.90;;;;;;5057843;28;20032;-59
2023/08/19 04:15:02;;;;;;;55.60;30.17;;;19.10;99.90;;;;;;5057746;28;20025;-59
2023/08/19 04:17:29;;;;;;;44.03;28.48;;;19.10;99.90;;;;;;5057737;28;20033;-59
2023/08/19 04:19:55;;;;;;;53.03;28.60;;;18.90;99.90;;;;;;5075790;28;20031;-59
2023/08/19 04:22:20;;;;;;;44.95;29.63;;;18.90;99.90;;;;;;5058138;28;20034;-65
2023/08/19 04:24:51;;;;;;;49.17;29.25;;;18.90;99.90;;;;;;5074021;28;20079;-65
2023/08/19 04:27:17;;;;;;;43.95;28.33;;;19.00;99.90;;;;;;5057446;28;20032;-66
2023/08/19 04:29:44;;;;;;;51.05;30.40;;;19.00;99.90;;;;;;5056698;28;20040;-66
2023/08/19 04:32:11;;;;;;;45.08;29.98;;;19.10;99.90;;;;;;5057300;28;20453;-66
2023/08/19 04:34:38;;;;;;;44.65;28.50;;;19.10;99.90;;;;;;5075400;28;20056;-66
2023/08/19 04:37:06;;;;;;;50.83;29.83;;;19.10;99.90;;;;;;5075314;28;20025;-66
2023/08/19 04:39:33;;;;;;;44.90;28.90;;;19.10;99.90;;;;;;5057077;28;20021;-66
2023/08/19 04:42:07;;;;;;;38.63;28.35;;;19.00;99.90;;;;;;5057306;28;20145;-66
2023/08/19 04:44:33;;;;;;;40.50;26.88;;;19.00;99.90;;;;;;5057284;28;20033;-66
2023/08/19 04:46:59;;;;;;;44.03;29.02;;;19.10;99.90;;;;;;5074495;28;20044;-66
2023/08/19 04:49:26;;;;;;;38.72;27.35;;;19.10;99.90;;;;;;5056992;28;20390;-66
2023/08/19 04:51:52;;;;;;;44.60;29.45;;;19.20;99.90;;;;;;5057120;28;20029;-66
2023/08/19 04:54:18;;;;;;;47.22;29.67;;;19.20;99.90;;;;;;5056920;28;20504;-66
2023/08/19 04:56:44;;;;;;;43.28;28.92;;;19.20;99.90;;;;;;5074960;28;20382;-65
2023/08/19 04:59:10;;;;;;;43.35;27.05;;;19.30;99.90;;;;;;5075079;28;20374;-65
2023/08/19 05:01:36;;;;;;;44.08;28.38;;;19.40;99.90;;;;;;5056913;28;20039;-65
2023/08/19 05:04:02;;;;;;;42.92;28.08;;;19.40;99.90;;;;;;5082994;28;20401;-65
2023/08/19 05:06:28;;;;;;;42.65;27.90;;;19.40;99.90;;;;;;5076805;28;20059;-66
2023/08/19 05:08:54;;;;;;;40.42;27.05;;;19.40;99.90;;;;;;5076824;28;20078;-65
2023/08/19 05:11:20;;;;;;;38.63;28.92;;;19.50;99.90;;;;;;5076723;28;20378;-66
2023/08/19 05:13:50;;;;;;;42.88;30.58;;;19.50;99.90;;;;;;5076877;28;20024;-65
2023/08/19 05:16:16;;;;;;;41.53;27.48;;;19.60;99.90;;;;;;5076663;28;20139;-66
2023/08/19 05:18:42;;;;;;;42.05;27.13;;;19.70;99.90;;;;;;5076506;28;20060;-65
2023/08/19 05:21:08;;;;;;;40.10;28.33;;;19.90;99.90;;;;;;5076553;28;20393;-66
2023/08/19 05:23:34;;;;;;;50.47;31.90;;;19.80;99.90;;;;;;5076682;28;20039;-65
2023/08/19 05:26:00;;;;;;;45.08;28.98;;;19.90;99.90;;;;;;5076568;28;20123;-66
2023/08/19 05:28:26;;;;;;;51.55;31.40;;;20.10;99.90;;;;;;5094639;28;20096;-66
2023/08/19 05:30:52;;;;;;;42.58;31.25;;;20.20;99.90;;;;;;5094713;28;20028;-66
2023/08/19 05:33:17;;;;;;;46.15;32.00;;;20.30;99.90;;;;;;5094909;28;20373;-65
2023/08/19 05:35:43;;;;;;;44.13;31.10;;;20.40;99.90;;;;;;5094424;28;20059;-65
2023/08/19 05:38:09;;;;;;;47.38;33.70;;;20.50;99.90;;;;;;5094587;28;20027;-65
2023/08/19 05:40:35;;;;;;;59.38;35.70;;;20.60;99.90;;;;;;5094422;28;20023;-65
2023/08/19 05:43:01;;;;;;;54.67;34.30;;;20.60;99.90;;;;;;5094507;28;20623;-65
2023/08/19 05:45:27;;;;;;;54.50;36.10;;;20.80;99.90;;;;;;5094474;28;20127;-65
2023/08/19 05:47:52;;;;;;;54.90;36.53;;;20.90;99.90;;;;;;5094540;28;20036;-65
2023/08/19 05:50:20;;;;;;;67.13;37.65;;;20.90;99.90;;;;;;5094233;28;20028;-65
2023/08/19 05:52:46;;;;;;;58.05;37.33;;;21.10;99.90;;;;;;5094476;28;20032;-66
2023/08/19 05:55:11;;;;;;;59.45;37.33;;;21.30;99.90;;;;;;5094438;28;20062;-65
2023/08/19 05:57:37;;;;;;;56.28;37.08;;;21.40;99.90;;;;;;5094358;28;20386;-66
2023/08/19 06:00:04;;;;;;;50.25;35.03;;;21.40;99.90;;;;;;5094300;28;20024;-65
2023/08/19 06:02:38;;;;;;;52.20;36.65;;;21.40;99.90;;;;;;5089831;28;20044;-66
2023/08/19 06:05:04;;;;;;;50.20;35.85;;;21.40;99.90;;;;;;5074051;28;20473;-66
2023/08/19 06:07:30;;;;;;;51.67;37.45;;;21.40;99.90;;;;;;5074233;28;20036;-66
2023/08/19 06:09:56;;;;;;;50.65;35.88;;;21.50;99.90;;;;;;5074038;28;20040;-66
2023/08/19 06:12:22;;;;;;;59.30;40.80;;;21.60;99.90;;;;;;5073772;28;20082;-66
2023/08/19 06:14:48;;;;;;;86.25;55.15;;;21.70;99.90;;;;;;5073903;28;20032;-66
2023/08/19 06:17:14;;;;;;;76.05;53.75;;;21.80;99.90;;;;;;5073919;28;20034;-66
2023/08/19 06:19:40;;;;;;;80.95;53.45;;;21.90;99.90;;;;;;5073998;28;20020;-66
2023/08/19 06:22:06;;;;;;;78.45;52.03;;;22.00;99.90;;;;;;5073856;28;20085;-66
2023/08/19 06:24:32;;;;;;;62.03;40.45;;;22.10;99.90;;;;;;5073964;28;20044;-66
2023/08/19 06:26:58;;;;;;;61.00;38.97;;;22.00;99.90;;;;;;5073735;28;20031;-66
2023/08/19 06:29:24;;;;;;;59.08;39.10;;;22.10;99.90;;;;;;5073846;28;20027;-66
2023/08/19 06:31:50;;;;;;;63.72;39.22;;;22.20;99.90;;;;;;5074165;28;20056;-66
2023/08/19 06:34:16;;;;;;;60.35;38.38;;;22.40;99.90;;;;;;5073707;28;20051;-66
2023/08/19 06:36:46;;;;;;;63.75;41.50;;;22.70;99.90;;;;;;5073796;28;20036;-66
2023/08/19 06:39:28;;;;;;;65.63;42.47;;;22.90;99.90;;;;;;5073897;28;20029;-66
2023/08/19 06:42:05;;;;;;;65.30;41.08;;;23.00;99.90;;;;;;5073836;28;20025;-66
2023/08/19 06:44:33;;;;;;;63.60;42.40;;;23.20;99.90;;;;;;5055672;28;20092;-66
2023/08/19 06:47:02;;;;;;;58.10;39.05;;;23.40;99.90;;;;;;5073558;28;20024;-66
2023/08/19 06:49:28;;;;;;;40.47;29.40;;;23.60;99.90;;;;;;5074040;28;20086;-66
2023/08/19 06:51:55;;;;;;;40.30;29.65;;;23.80;99.90;;;;;;5075046;28;20450;-66
2023/08/19 06:54:21;;;;;;;35.92;27.05;;;23.80;99.90;;;;;;5077231;28;20474;-66
2023/08/19 06:56:57;;;;;;;37.28;26.73;;;24.00;99.90;;;;;;5077319;28;20036;-66
2023/08/19 06:59:35;;;;;;;37.33;24.73;;;24.30;99.90;;;;;;5077261;28;20074;-66
2023/08/19 07:02:02;;;;;;;30.00;24.83;;;24.30;99.90;;;;;;5076926;28;20031;-66
2023/08/19 07:04:29;;;;;;;27.95;21.70;;;24.40;99.90;;;;;;5076806;28;20048;-66
2023/08/19 07:07:03;;;;;;;29.30;20.67;;;24.60;99.90;;;;;;5077069;28;20035;-66
2023/08/19 07:09:30;;;;;;;28.58;21.38;;;24.60;99.90;;;;;;5076730;28;20386;-66
2023/08/19 07:11:57;;;;;;;31.20;20.30;;;24.90;99.90;;;;;;5076863;28;20386;-66
2023/08/19 07:14:25;;;;;;;34.25;22.10;;;25.10;99.90;;;;;;5076930;28;20021;-66
2023/08/19 07:16:52;;;;;;;29.55;21.48;;;24.90;99.90;;;;;;5076897;28;20459;-66
2023/08/19 07:19:34;;;;;;;34.92;20.95;;;25.20;99.90;;;;;;5076900;28;20032;-66
2023/08/19 07:22:00;;;;;;;33.78;21.85;;;25.30;99.90;;;;;;5076642;28;20090;-66
2023/08/19 07:24:26;;;;;;;32.72;20.80;;;25.50;99.90;;;;;;5076890;28;20060;-66
2023/08/19 07:26:52;;;;;;;32.35;21.90;;;25.90;99.90;;;;;;5076748;28;20064;-66
2023/08/19 07:29:18;;;;;;;41.72;20.80;;;26.20;99.90;;;;;;5076574;28;20028;-66
2023/08/19 07:31:47;;;;;;;42.30;21.42;;;26.40;99.90;;;;;;5076685;28;20041;-66
2023/08/19 07:34:13;;;;;;;42.75;20.95;;;26.40;99.90;;;;;;5076462;28;20473;-66
2023/08/19 07:36:39;;;;;;;44.60;20.90;;;26.70;99.90;;;;;;5076386;28;20031;-66
2023/08/19 07:39:05;;;;;;;47.17;20.88;;;26.90;99.90;;;;;;5076347;28;20063;-66
2023/08/19 07:41:30;;;;;;;45.30;20.13;;;27.10;99.90;;;;;;5076418;28;20035;-66
2023/08/19 07:43:56;;;;;;;49.92;20.35;;;27.10;99.90;;;;;;5076275;28;20029;-66
2023/08/19 07:46:22;;;;;;;43.05;20.67;;;27.20;99.90;;;;;;5076607;28;20029;-66
2023/08/19 07:48:48;;;;;;;45.30;21.45;;;27.30;99.90;;;;;;5076296;28;20114;-66
2023/08/19 07:51:14;;;;;;;44.63;20.10;;;26.70;99.90;;;;;;5076153;28;20044;-66
2023/08/19 07:53:40;;;;;;;45.10;20.88;;;27.10;99.90;;;;;;5076082;28;20035;-66
2023/08/19 07:56:06;;;;;;;40.05;20.13;;;27.10;99.90;;;;;;5076119;28;20082;-66
2023/08/19 07:58:33;;;;;;;43.75;20.17;;;27.60;99.90;;;;;;5075881;28;20055;-66
2023/08/19 08:00:59;;;;;;;32.08;18.50;;;27.30;99.50;;;;;;5076076;28;20024;-67
2023/08/19 08:03:25;;;;;;;32.92;19.23;;;27.80;99.70;;;;;;5085020;28;20121;-66
2023/08/19 08:05:51;;;;;;;38.88;22.52;;;28.10;98.60;;;;;;5096021;28;20020;-67
2023/08/19 08:08:17;;;;;;;39.75;19.45;;;28.40;96.80;;;;;;5096227;28;20115;-67
2023/08/19 08:10:43;;;;;;;37.55;18.50;;;28.60;96.90;;;;;;5095943;28;20059;-66
2023/08/19 08:13:08;;;;;;;39.00;18.33;;;28.80;94.00;;;;;;5095807;28;20031;-67
2023/08/19 08:15:34;;;;;;;36.17;18.92;;;29.00;93.10;;;;;;5095971;28;20024;-67
2023/08/19 08:18:00;;;;;;;35.53;18.88;;;29.10;94.00;;;;;;5095791;28;20473;-67
2023/08/19 08:20:26;;;;;;;32.13;18.00;;;29.00;93.60;;;;;;5095699;28;20024;-67
2023/08/19 08:22:52;;;;;;;34.95;18.17;;;29.20;93.80;;;;;;5096025;28;20026;-67
2023/08/19 08:25:18;;;;;;;38.50;19.95;;;29.50;97.30;;;;;;5095710;28;20118;-67
2023/08/19 08:27:45;;;;;;;33.83;18.85;;;29.80;94.70;;;;;;5095387;28;20035;-67
2023/08/19 08:30:11;;;;;;;37.58;19.15;;;30.00;92.30;;;;;;5095656;28;20088;-67
2023/08/19 08:32:37;;;;;;;30.38;20.35;;;29.80;92.00;;;;;;5095633;28;20032;-68
2023/08/19 08:35:04;;;;;;;33.67;19.45;;;30.10;89.70;;;;;;5095462;28;20119;-67
2023/08/19 08:37:29;;;;;;;37.58;21.63;;;30.10;91.00;;;;;;5095520;28;20107;-67
2023/08/19 08:39:55;;;;;;;39.58;21.02;;;29.60;91.10;;;;;;5095564;28;20488;-67
2023/08/19 08:42:23;;;;;;;34.83;22.48;;;29.70;90.00;;;;;;5095247;28;20047;-67
2023/08/19 08:44:50;;;;;;;37.78;21.75;;;29.50;87.30;;;;;;5095634;28;20103;-67
2023/08/19 08:47:16;;;;;;;32.60;21.33;;;29.50;88.60;;;;;;5095180;28;20221;-68
2023/08/19 08:49:45;;;;;;;31.90;22.15;;;29.50;87.50;;;;;;5095259;28;20028;-68
2023/08/19 08:52:11;;;;;;;36.80;23.27;;;29.50;87.30;;;;;;5095305;28;20024;-67
2023/08/19 08:54:39;;;;;;;31.73;21.83;;;29.20;88.90;;;;;;5095279;28;20546;-68
2023/08/19 08:57:05;;;;;;;33.45;22.90;;;28.60;91.30;;;;;;5095369;28;20020;-68
2023/08/19 08:59:31;;;;;;;39.22;23.15;;;28.60;92.30;;;;;;5095112;28;20035;-67
2023/08/19 09:01:58;;;;;;;39.22;24.88;;;28.50;93.00;;;;;;5094995;28;20020;-67
2023/08/19 09:04:28;;;;;;;37.83;22.95;;;28.50;91.70;;;;;;5095124;28;20047;-68
2023/08/19 09:07:02;;;;;;;36.78;24.73;;;28.20;93.00;;;;;;5095107;28;20047;-67
2023/08/19 09:09:32;;;;;;;49.90;30.10;;;28.20;94.80;;;;;;5094711;28;20107;-67
2023/08/19 09:11:59;;;;;;;48.55;30.25;;;28.10;93.60;;;;;;5094975;28;20028;-67
2023/08/19 09:14:38;;;;;;;53.13;31.45;;;27.80;95.00;;;;;;5094354;28;20093;-67
2023/08/19 09:17:04;;;;;;;64.03;35.47;;;27.80;95.80;;;;;;5094798;28;20028;-67
2023/08/19 09:19:30;;;;;;;64.53;35.35;;;27.50;95.60;;;;;;5094900;28;20032;-67
2023/08/19 09:21:56;;;;;;;64.75;34.08;;;27.20;97.60;;;;;;5094785;28;20394;-67
2023/08/19 09:24:22;;;;;;;68.80;37.28;;;27.00;97.80;;;;;;5094729;28;20032;-67
2023/08/19 09:26:55;;;;;;;80.72;41.30;;;26.90;99.80;;;;;;5094891;28;20481;-67
2023/08/19 09:29:23;;;;;;;104.68;47.95;;;27.00;99.60;;;;;;5094883;28;20020;-67
2023/08/19 09:31:53;;;;;;;137.50;58.72;;;27.10;99.90;;;;;;5094713;28;20496;-67
2023/08/19 09:34:19;;;;;;;153.60;59.05;;;27.20;98.90;;;;;;5094688;28;20024;-67
2023/08/19 09:36:45;;;;;;;144.02;57.15;;;27.30;99.80;;;;;;5094509;28;20024;-67
2023/08/19 09:39:11;;;;;;;169.40;66.07;;;27.40;98.00;;;;;;5094552;28;20024;-68
2023/08/19 09:41:38;;;;;;;188.45;70.43;;;27.40;99.90;;;;;;5094774;28;20032;-67
2023/08/19 09:44:14;;;;;;;203.15;77.03;;;27.30;97.90;;;;;;5094632;28;20024;-67
2023/08/19 09:46:42;;;;;;;181.45;70.13;;;27.30;98.00;;;;;;5094382;28;20028;-67
2023/08/19 09:49:09;;;;;;;171.63;71.63;;;27.40;98.00;;;;;;5094514;28;20032;-66
2023/08/19 09:51:36;;;;;;;193.57;74.38;;;27.60;97.70;;;;;;5094544;28;20111;-66
2023/08/19 09:54:10;;;;;;;184.32;74.35;;;27.80;98.70;;;;;;5094392;28;20032;-67
2023/08/19 09:56:36;;;;;;;187.38;77.28;;;28.10;98.30;;;;;;5094380;28;20074;-66
2023/08/19 09:59:02;;;;;;;179.02;73.75;;;28.00;96.30;;;;;;5094337;28;20373;-67
2023/08/19 10:01:28;;;;;;;163.00;69.60;;;27.90;96.30;;;;;;5094370;28;20024;-67
2023/08/19 10:03:54;;;;;;;137.48;62.42;;;28.20;95.80;;;;;;5079866;28;20052;-66
2023/08/19 10:06:26;;;;;;;118.55;58.53;;;28.60;98.50;;;;;;5074201;28;20103;-66
2023/08/19 10:09:02;;;;;;;96.43;49.83;;;28.70;94.00;;;;;;5074205;28;20033;-67
2023/08/19 10:11:30;;;;;;;112.35;52.88;;;29.00;93.20;;;;;;5065927;28;20116;-67
2023/08/19 10:14:02;;;;;;;108.80;54.20;;;29.00;94.50;;;;;;5073795;28;20035;-66
2023/08/19 10:16:32;;;;;;;126.55;52.13;;;29.20;93.40;;;;;;5074041;28;20135;-67
2023/08/19 10:18:59;;;;;;;97.20;50.63;;;29.40;92.70;;;;;;5056162;28;20029;-67
2023/08/19 10:21:27;;;;;;;92.15;46.03;;;29.40;92.80;;;;;;5074028;28;20017;-66
2023/08/19 10:23:54;;;;;;;96.05;45.80;;;29.60;92.40;;;;;;5074053;28;20025;-67
2023/08/19 10:26:20;;;;;;;90.70;47.10;;;29.90;92.70;;;;;;5074457;28;20024;-67
2023/08/19 10:29:07;;;;;;;94.88;50.63;;;29.90;90.40;;;;;;5077694;28;20569;-67
2023/08/19 10:31:35;;;;;;;90.15;47.15;;;29.50;90.40;;;;;;5077684;28;20055;-67
2023/08/19 10:34:30;;;;;;;81.22;43.08;;;30.00;90.70;;;;;;5077719;28;20029;-67
2023/08/19 10:37:09;;;;;;;68.53;39.63;;;30.40;89.50;;;;;;5056265;28;20036;-67
2023/08/19 10:39:36;;;;;;;69.30;43.17;;;30.60;86.70;;;;;;5077571;28;20486;-67
2023/08/19 10:42:03;;;;;;;70.93;40.33;;;30.20;85.50;;;;;;5077564;28;20762;-67
2023/08/19 10:44:33;;;;;;;81.05;43.40;;;30.70;86.70;;;;;;5077573;28;20060;-67
2023/08/19 10:47:15;;;;;;;65.38;38.67;;;30.40;86.20;;;;;;5077329;28;20036;-67
2023/08/19 10:49:41;;;;;;;66.78;40.70;;;30.90;86.80;;;;;;5077335;28;20103;-67
2023/08/19 10:52:07;;;;;;;67.95;39.42;;;30.90;81.50;;;;;;5077370;28;20074;-67
2023/08/19 10:54:40;;;;;;;66.70;39.35;;;30.80;83.00;;;;;;5077253;28;20032;-67
2023/08/19 10:57:15;;;;;;;64.15;37.90;;;30.90;81.40;;;;;;5077143;28;20028;-67
2023/08/19 10:59:43;;;;;;;67.15;39.63;;;30.70;81.10;;;;;;5077176;28;20351;-67
2023/08/19 11:02:11;;;;;;;63.05;37.47;;;30.50;82.50;;;;;;5077166;28;20060;-67
2023/08/19 11:04:42;;;;;;;70.70;38.13;;;30.20;84.10;;;;;;5090134;28;20040;-68
2023/08/19 11:07:09;;;;;;;62.42;36.55;;;30.70;82.50;;;;;;5097482;28;20030;-67
2023/08/19 11:09:35;;;;;;;56.55;35.63;;;31.10;81.80;;;;;;5097346;28;20052;-68
2023/08/19 11:12:02;;;;;;;62.85;37.95;;;31.30;86.90;;;;;;5097265;28;20057;-68
2023/08/19 11:14:28;;;;;;;54.53;34.72;;;32.00;77.60;;;;;;5097102;28;20095;-68
2023/08/19 11:16:56;;;;;;;55.72;36.10;;;32.60;79.70;;;;;;5097114;28;20450;-68
2023/08/19 11:19:22;;;;;;;60.17;36.63;;;32.90;72.70;;;;;;5097167;28;20358;-68
2023/08/19 11:21:49;;;;;;;66.70;36.70;;;33.00;71.00;;;;;;5097097;28;20473;-69
2023/08/19 11:24:15;;;;;;;56.95;35.67;;;33.30;70.30;;;;;;5097062;28;20028;-69
2023/08/19 11:26:42;;;;;;;55.30;36.45;;;33.00;67.90;;;;;;5096916;28;20125;-68
2023/08/19 11:29:08;;;;;;;53.50;36.63;;;33.00;68.60;;;;;;5096985;28;20036;-68
2023/08/19 11:31:38;;;;;;;52.97;34.78;;;33.50;68.70;;;;;;5096936;28;20093;-68
2023/08/19 11:34:12;;;;;;;52.15;35.05;;;32.90;67.80;;;;;;5096827;28;20024;-68
2023/08/19 11:36:39;;;;;;;47.08;33.83;;;33.30;66.60;;;;;;5096771;28;20543;-69
2023/08/19 11:39:05;;;;;;;53.42;36.60;;;33.50;65.10;;;;;;5096446;28;20024;-69
2023/08/19 11:41:32;;;;;;;50.60;35.38;;;33.70;63.30;;;;;;5096757;28;20020;-69
2023/08/19 11:44:00;;;;;;;47.38;32.72;;;33.90;66.50;;;;;;5096644;28;20058;-69
2023/08/19 11:46:33;;;;;;;50.92;33.55;;;33.90;61.30;;;;;;5096308;28;20036;-68
2023/08/19 11:49:03;;;;;;;59.67;34.60;;;33.80;60.20;;;;;;5096578;28;20031;-68
2023/08/19 11:51:29;;;;;;;47.53;31.50;;;33.30;63.70;;;;;;5096465;28;20035;-69
2023/08/19 11:54:08;;;;;;;42.53;30.15;;;33.50;68.90;;;;;;5096266;28;20084;-69
2023/08/19 11:56:47;;;;;;;44.20;31.50;;;33.90;59.60;;;;;;5096521;28;20081;-69
2023/08/19 11:59:13;;;;;;;43.83;28.58;;;33.50;61.80;;;;;;5096233;28;20082;-69
2023/08/19 12:01:39;;;;;;;43.22;31.75;;;34.00;61.80;;;;;;5096405;28;20028;-69
2023/08/19 12:04:17;;;;;;;43.63;33.08;;;33.50;59.30;;;;;;5095878;28;20123;-69
2023/08/19 12:06:44;;;;;;;43.38;31.88;;;33.70;65.00;;;;;;5096104;28;20058;-69
2023/08/19 12:09:11;;;;;;;42.22;32.25;;;33.80;62.50;;;;;;5096568;28;20020;-69
2023/08/19 12:11:38;;;;;;;41.85;31.30;;;34.10;60.60;;;;;;5095954;28;20161;-69
2023/08/19 12:14:05;;;;;;;31.02;25.55;;;33.80;60.20;;;;;;5096035;28;20027;-69
2023/08/19 12:16:31;;;;;;;28.40;19.50;;;33.80;63.10;;;;;;5096054;28;20032;-69
2023/08/19 12:18:58;;;;;;;19.95;14.65;;;34.00;58.80;;;;;;5095960;28;20056;-68
2023/08/19 12:21:25;;;;;;;20.20;14.73;;;33.70;54.90;;;;;;5095925;28;20047;-68
2023/08/19 12:23:51;;;;;;;14.18;12.75;;;33.40;54.90;;;;;;5096039;28;20024;-68
2023/08/19 12:26:18;;;;;;;18.65;13.38;;;33.10;55.40;;;;;;5095735;28;20032;-69
2023/08/19 12:28:44;;;;;;;14.65;12.15;;;33.00;59.00;;;;;;5095980;28;20066;-68